Time;durP1;ratioP1;P1;durP2;ratioP2;P2;SDS_P1;SDS_P2;PMS_P1;PMS_P2;Temp;Humidity;BMP_temperature;BMP_pressure;BME280_temperature;BME280_humidity;BME280_pressure;Samples;Min_cycle;Max_cycle;Signal;HPM_P1;HPM_P2
2022/09/30 00:01:57;;;;;;;16.27;13.30;;;;;;;;;;4363080;32;19986;-75
2022/09/30 00:04:23;;;;;;;13.23;11.55;;;;;;;;;;4348906;33;20082;-75
2022/09/30 00:06:50;;;;;;;16.95;13.93;;;;;;;;;;4362486;32;20035;-75
2022/09/30 00:09:16;;;;;;;18.87;13.40;;;;;;;;;;4350226;33;20061;-75
2022/09/30 00:11:41;;;;;;;;;;;;;;;;;;4348932;33;20437;-74
2022/09/30 00:14:11;;;;;;;15.52;12.32;;;;;;;;;;4348838;33;19946;-75
2022/09/30 00:16:36;;;;;;;14.18;12.07;;;;;;;;;;4349314;33;20035;-75
2022/09/30 00:19:03;;;;;;;;;;;;;;;;;;4349070;33;20464;-75
2022/09/30 00:21:29;;;;;;;17.15;11.57;;;;;;;;;;4349063;33;19930;-75
2022/09/30 00:23:54;;;;;;;14.48;11.38;;;;;;;;;;4348703;33;20024;-75
2022/09/30 00:26:19;;;;;;;;;;;;;;;;;;4348796;33;20041;-75
2022/09/30 00:28:48;;;;;;;13.62;9.98;;;;;;;;;;4348551;33;20002;-75
2022/09/30 00:31:14;;;;;;;14.18;10.25;;;;;;;;;;4348463;33;20100;-74
2022/09/30 00:33:40;;;;;;;13.30;9.25;;;;;;;;;;4348949;33;20054;-74
2022/09/30 00:36:05;;;;;;;;;;;;;;;;;;4348858;33;20039;-74
2022/09/30 00:38:36;;;;;;;13.65;7.18;;;;;;;;;;4348242;33;19953;-75
2022/09/30 00:41:04;;;;;;;9.00;7.32;;;;;;;;;;4348626;33;20074;-74
2022/09/30 00:43:41;;;;;;;8.00;7.03;;;;;;;;;;4348183;33;20498;-75
2022/09/30 00:46:15;;;;;;;19.05;7.43;;;;;;;;;;4362069;32;20081;-75
2022/09/30 00:48:40;;;;;;;8.05;6.72;;;;;;;;;;4362966;32;20138;-74
2022/09/30 00:51:05;;;;;;;;;;;;;;;;;;4362035;33;20062;-75
2022/09/30 00:53:34;;;;;;;12.32;6.35;;;;;;;;;;4362099;32;19982;-74
2022/09/30 00:56:06;;;;;;;10.60;7.62;;;;;;;;;;4349722;32;20135;-75
2022/09/30 00:58:44;;;;;;;7.70;6.90;;;;;;;;;;4348653;33;20378;-75
2022/09/30 01:01:10;;;;;;;9.32;7.20;;;;;;;;;;4361574;32;20062;-74
2022/09/30 01:03:35;;;;;;;;;;;;;;;;;;4362211;32;20035;-75
2022/09/30 01:06:01;;;;;;;9.43;7.68;;;;;;;;;;4348506;33;19976;-75
2022/09/30 01:08:26;;;;;;;;;;;;;;;;;;4348450;33;20058;-75
2022/09/30 01:10:51;;;;;;;10.88;8.80;;;;;;;;;;4349036;33;19934;-74
2022/09/30 01:13:22;;;;;;;;;;;;;;;;;;4362390;32;20401;-75
2022/09/30 01:15:54;;;;;;;9.27;8.27;;;;;;;;;;4347591;33;19935;-75
2022/09/30 01:18:30;;;;;;;13.77;9.07;;;;;;;;;;4348167;33;20027;-75
2022/09/30 01:21:21;;;;;;;14.48;10.32;;;;;;;;;;4361536;32;20038;-75
2022/09/30 01:24:08;;;;;;;14.35;10.85;;;;;;;;;;4333528;33;20059;-75
2022/09/30 01:26:36;;;;;;;;;;;;;;;;;;4347572;33;20029;-74
2022/09/30 01:29:23;;;;;;;15.27;9.43;;;;;;;;;;4346803;33;19961;-75
2022/09/30 01:31:51;;;;;;;;;;;;;;;;;;4346728;33;20032;-74
2022/09/30 01:34:28;;;;;;;16.35;10.55;;;;;;;;;;4359176;33;19946;-75
2022/09/30 01:37:02;;;;;;;15.02;10.65;;;;;;;;;;4361823;32;20117;-76
2022/09/30 01:39:39;;;;;;;14.48;11.98;;;;;;;;;;4360930;32;20161;-75
2022/09/30 01:42:21;;;;;;;17.00;13.20;;;;;;;;;;4361114;32;20089;-74
2022/09/30 01:45:01;;;;;;;15.15;12.52;;;;;;;;;;4347854;33;20039;-75
2022/09/30 01:47:30;;;;;;;13.93;11.27;;;;;;;;;;4361561;32;20030;-75
2022/09/30 01:49:59;;;;;;;14.70;11.75;;;;;;;;;;4361658;32;20103;-74
2022/09/30 01:52:30;;;;;;;13.13;11.32;;;;;;;;;;4347225;33;20118;-75
2022/09/30 01:55:01;;;;;;;18.55;12.52;;;;;;;;;;4361081;32;20027;-74
2022/09/30 01:57:45;;;;;;;13.30;10.82;;;;;;;;;;4348182;33;20073;-74
2022/09/30 02:00:12;;;;;;;18.50;12.95;;;;;;;;;;4361439;32;20061;-75
2022/09/30 02:02:47;;;;;;;17.12;11.80;;;;;;;;;;4347635;33;20116;-75
2022/09/30 02:05:19;;;;;;;18.80;12.90;;;;;;;;;;4360673;32;20487;-74
2022/09/30 02:07:47;;;;;;;18.48;12.75;;;;;;;;;;4347743;33;20023;-74
2022/09/30 02:10:15;;;;;;;19.25;14.77;;;;;;;;;;4360756;32;20035;-74
2022/09/30 02:12:46;;;;;;;14.80;10.93;;;;;;;;;;4360947;32;20058;-75
2022/09/30 02:15:13;;;;;;;16.48;11.88;;;;;;;;;;4360652;32;20110;-74
2022/09/30 02:17:51;;;;;;;14.93;10.73;;;;;;;;;;4359373;33;20031;-74
2022/09/30 02:20:19;;;;;;;14.60;12.02;;;;;;;;;;4360967;32;20406;-74
2022/09/30 02:22:47;;;;;;;14.93;10.70;;;;;;;;;;4360861;32;20064;-74
2022/09/30 02:25:19;;;;;;;15.40;10.95;;;;;;;;;;4360453;33;20422;-74
2022/09/30 02:27:48;;;;;;;14.50;10.27;;;;;;;;;;4347923;33;20023;-74
2022/09/30 02:30:13;;;;;;;14.63;11.00;;;;;;;;;;4359024;32;20039;-75
2022/09/30 02:32:38;;;;;;;;;;;;;;;;;;4360916;32;20026;-74
2022/09/30 02:35:12;;;;;;;14.55;12.37;;;;;;;;;;4360347;32;19946;-75
2022/09/30 02:37:43;;;;;;;16.40;12.32;;;;;;;;;;4347181;33;20124;-75
2022/09/30 02:40:38;;;;;;;15.02;11.75;;;;;;;;;;4360207;32;20055;-74
2022/09/30 02:43:09;;;;;;;15.82;11.38;;;;;;;;;;4346875;33;20047;-74
2022/09/30 02:45:52;;;;;;;15.38;12.23;;;;;;;;;;4360855;32;20070;-75
2022/09/30 02:48:42;;;;;;;18.45;13.00;;;;;;;;;;4346827;33;20028;-74
2022/09/30 02:51:17;;;;;;;17.45;12.68;;;;;;;;;;4360258;32;20031;-76
2022/09/30 02:53:45;;;;;;;15.52;12.95;;;;;;;;;;4347211;33;20027;-76
2022/09/30 02:56:18;;;;;;;18.48;13.38;;;;;;;;;;4346404;33;20046;-76
2022/09/30 02:58:44;;;;;;;15.75;12.40;;;;;;;;;;4360283;32;20069;-75
2022/09/30 03:01:11;;;;;;;16.27;13.68;;;;;;;;;;4346386;33;20035;-75
2022/09/30 03:03:45;;;;;;;16.02;12.82;;;;;;;;;;4346757;33;20047;-74
2022/09/30 03:06:10;;;;;;;17.80;12.70;;;;;;;;;;4359949;33;20114;-75
2022/09/30 03:08:36;;;;;;;;;;;;;;;;;;4360323;33;20042;-76
2022/09/30 03:11:01;;;;;;;18.35;13.88;;;;;;;;;;4346586;33;19938;-76
2022/09/30 03:13:26;;;;;;;;;;;;;;;;;;4360372;33;20081;-76
2022/09/30 03:15:55;;;;;;;16.73;12.80;;;;;;;;;;4346498;33;20276;-76
2022/09/30 03:19:01;;;;;;;16.80;13.80;;;;;;;;;;4360759;33;20031;-76
2022/09/30 03:21:42;;;;;;;17.00;13.85;;;;;;;;;;4323596;33;20089;-76
2022/09/30 03:24:16;;;;;;;20.48;14.18;;;;;;;;;;4347720;33;20421;-75
2022/09/30 03:26:55;;;;;;;26.77;15.05;;;;;;;;;;4349511;33;20030;-76
2022/09/30 03:29:30;;;;;;;20.55;14.20;;;;;;;;;;4350449;33;20038;-76
2022/09/30 03:32:01;;;;;;;26.52;16.87;;;;;;;;;;4363679;32;20050;-75
2022/09/30 03:34:32;;;;;;;25.48;16.30;;;;;;;;;;4349820;33;20408;-75
2022/09/30 03:37:01;;;;;;;18.30;15.98;;;;;;;;;;4349714;33;20370;-75
2022/09/30 03:39:32;;;;;;;21.20;15.82;;;;;;;;;;4362762;32;20535;-75
2022/09/30 03:42:14;;;;;;;25.00;17.92;;;;;;;;;;4363428;32;20074;-76
2022/09/30 03:44:41;;;;;;;20.62;16.55;;;;;;;;;;4363516;32;20035;-76
2022/09/30 03:47:12;;;;;;;23.90;16.62;;;;;;;;;;4363190;32;20023;-74
2022/09/30 03:49:50;;;;;;;23.95;16.65;;;;;;;;;;4349215;33;20065;-75
2022/09/30 03:52:16;;;;;;;21.48;16.48;;;;;;;;;;4349621;33;20043;-75
2022/09/30 03:54:42;;;;;;;;;;;;;;;;;;4349320;33;20410;-75
2022/09/30 03:57:08;;;;;;;29.40;16.92;;;;;;;;;;4349991;33;20269;-75
2022/09/30 03:59:33;;;;;;;;;;;;;;;;;;4350722;33;20031;-74
2022/09/30 04:01:58;;;;;;;18.37;15.35;;;;;;;;;;4349521;33;19938;-75
2022/09/30 04:04:23;;;;;;;;;;;;;;;;;;4349159;33;20116;-75
2022/09/30 04:06:48;;;;;;;19.85;14.50;;;;;;;;;;4349116;33;19949;-75
2022/09/30 04:09:14;;;;;;;24.23;16.55;;;;;;;;;;4348805;33;20066;-74
2022/09/30 04:11:39;;;;;;;;;;;;;;;;;;4349057;33;20028;-75
2022/09/30 04:14:04;;;;;;;17.15;14.20;;;;;;;;;;4362488;32;19930;-75
2022/09/30 04:16:30;;;;;;;20.10;15.27;;;;;;;;;;4349225;33;20062;-75
2022/09/30 04:18:55;;;;;;;;;;;;;;;;;;4349064;33;20418;-75
2022/09/30 04:21:21;;;;;;;19.30;15.32;;;;;;;;;;4349177;33;19939;-75
2022/09/30 04:23:46;;;;;;;;;;;;;;;;;;4362840;32;20036;-75
2022/09/30 04:26:13;;;;;;;20.92;16.10;;;;;;;;;;4348898;33;20350;-75
2022/09/30 04:28:39;;;;;;;21.85;16.48;;;;;;;;;;4362117;32;20166;-74
2022/09/30 04:31:04;;;;;;;;;;;;;;;;;;4348922;33;20035;-75
2022/09/30 04:33:29;;;;;;;25.70;19.00;;;;;;;;;;4349349;33;20269;-76
2022/09/30 04:35:54;;;;;;;;;;;;;;;;;;4362107;32;20193;-74
2022/09/30 04:38:21;;;;;;;26.90;18.20;;;;;;;;;;4362823;32;20004;-75
2022/09/30 04:40:48;;;;;;;31.73;20.15;;;;;;;;;;4362184;32;20110;-75
2022/09/30 04:43:13;;;;;;;32.33;20.00;;;;;;;;;;4362385;32;20052;-75
2022/09/30 04:45:38;;;;;;;;;;;;;;;;;;4348807;33;20032;-75
2022/09/30 04:48:04;;;;;;;34.83;21.42;;;;;;;;;;4348529;33;19942;-73
2022/09/30 04:50:30;;;;;;;;;;;;;;;;;;4349047;33;20198;-75
2022/09/30 04:52:56;;;;;;;32.00;22.30;;;;;;;;;;4348624;33;20234;-74
2022/09/30 04:55:22;;;;;;;34.10;24.35;;;;;;;;;;4348056;33;20074;-74
2022/09/30 04:57:48;;;;;;;37.13;26.48;;;;;;;;;;4361645;32;20103;-75
2022/09/30 05:00:13;;;;;;;;;;;;;;;;;;4348596;33;20032;-75
2022/09/30 05:02:41;;;;;;;38.58;26.08;;;;;;;;;;4361652;32;19991;-75
2022/09/30 05:05:07;;;;;;;43.87;28.02;;;;;;;;;;4347906;33;20153;-76
2022/09/30 05:07:32;;;;;;;;;;;;;;;;;;4361992;32;20373;-75
2022/09/30 05:10:03;;;;;;;44.53;28.42;;;;;;;;;;4361497;32;20288;-75
2022/09/30 05:12:28;;;;;;;44.45;28.02;;;;;;;;;;4348376;33;20027;-75
2022/09/30 05:14:53;;;;;;;;;;;;;;;;;;4361543;32;20459;-75
2022/09/30 05:17:19;;;;;;;45.53;28.27;;;;;;;;;;4361068;32;20297;-75
2022/09/30 05:19:44;;;;;;;38.28;27.00;;;;;;;;;;4346987;33;20031;-75
2022/09/30 05:22:09;;;;;;;;;;;;;;;;;;4362748;32;20145;-75
2022/09/30 05:24:34;;;;;;;38.35;26.23;;;;;;;;;;4347722;33;19943;-74
2022/09/30 05:27:00;;;;;;;;;;;;;;;;;;4347598;33;20382;-74
2022/09/30 05:29:26;;;;;;;38.92;25.08;;;;;;;;;;4361732;33;20272;-75
2022/09/30 05:31:54;;;;;;;34.60;24.83;;;;;;;;;;4361065;32;20109;-75
2022/09/30 05:34:40;;;;;;;33.35;24.10;;;;;;;;;;4346688;33;20471;-74
2022/09/30 05:37:15;;;;;;;37.22;24.77;;;;;;;;;;4360330;33;20035;-76
2022/09/30 05:39:41;;;;;;;33.72;24.05;;;;;;;;;;4360747;32;20031;-74
2022/09/30 05:42:06;;;;;;;33.28;24.30;;;;;;;;;;4347380;33;20043;-73
2022/09/30 05:44:40;;;;;;;;;;;;;;;;;;4347826;33;20023;-75
2022/09/30 05:47:11;;;;;;;28.33;18.85;;;;;;;;;;4360580;32;19948;-75
2022/09/30 05:49:45;;;;;;;24.98;18.48;;;;;;;;;;4347435;33;20027;-74
2022/09/30 05:52:13;;;;;;;25.62;17.95;;;;;;;;;;4360492;33;20078;-75
2022/09/30 05:54:40;;;;;;;32.08;18.52;;;;;;;;;;4346794;33;20076;-75
2022/09/30 05:57:07;;;;;;;28.10;19.52;;;;;;;;;;4360616;33;20031;-75
2022/09/30 05:59:32;;;;;;;32.65;19.90;;;;;;;;;;4358747;32;20043;-76
2022/09/30 06:01:57;;;;;;;;;;;;;;;;;;4346419;33;20054;-74
2022/09/30 06:04:22;;;;;;;22.30;17.23;;;;;;;;;;4347618;33;19934;-75
2022/09/30 06:06:48;;;;;;;;;;;;;;;;;;4347014;33;20525;-74
2022/09/30 06:09:13;;;;;;;26.83;19.67;;;;;;;;;;4347738;33;19942;-75
2022/09/30 06:11:39;;;;;;;;;;;;;;;;;;4347091;33;20046;-74
2022/09/30 06:14:04;;;;;;;32.20;21.90;;;;;;;;;;4347831;33;19930;-74
2022/09/30 06:16:30;;;;;;;33.78;22.25;;;;;;;;;;4346813;33;20023;-75
2022/09/30 06:18:56;;;;;;;31.77;23.20;;;;;;;;;;4347516;33;20084;-76
2022/09/30 06:21:22;;;;;;;;;;;;;;;;;;4361628;32;20023;-75
2022/09/30 06:23:47;;;;;;;26.60;20.73;;;;;;;;;;4358489;33;19939;-74
2022/09/30 06:26:13;;;;;;;;;;;;;;;;;;4361260;32;20109;-76
2022/09/30 06:28:38;;;;;;;35.63;24.73;;;;;;;;;;4360327;32;19943;-75
2022/09/30 06:31:04;;;;;;;;;;;;;;;;;;4359425;32;20142;-74
2022/09/30 06:33:29;;;;;;;39.88;24.15;;;;;;;;;;4359141;32;19938;-75
2022/09/30 06:35:54;;;;;;;;;;;;;;;;;;4355772;32;20031;-75
2022/09/30 06:38:21;;;;;;;33.40;24.27;;;;;;;;;;4346588;33;19938;-76
2022/09/30 06:40:49;;;;;;;38.50;25.92;;;;;;;;;;4346454;33;20420;-76
2022/09/30 06:43:15;;;;;;;40.33;27.83;;;;;;;;;;4347700;33;20083;-75
2022/09/30 06:45:40;;;;;;;;;;;;;;;;;;4347290;33;20019;-75
2022/09/30 06:48:08;;;;;;;39.30;28.70;;;;;;;;;;4346796;33;19946;-75
2022/09/30 06:50:34;;;;;;;41.05;29.30;;;;;;;;;;4346552;33;20085;-75
2022/09/30 06:52:59;;;;;;;;;;;;;;;;;;4346743;33;20027;-75
2022/09/30 06:55:26;;;;;;;38.50;29.05;;;;;;;;;;4346519;33;19957;-76
2022/09/30 06:58:10;;;;;;;36.95;29.05;;;;;;;;;;4360605;32;20062;-75
2022/09/30 07:00:35;;;;;;;43.20;30.10;;;;;;;;;;4346457;33;20039;-75
2022/09/30 07:03:00;;;;;;;;;;;;;;;;;;4347091;33;20385;-75
2022/09/30 07:05:28;;;;;;;39.80;28.33;;;;;;;;;;4346370;33;19953;-75
2022/09/30 07:07:55;;;;;;;40.33;29.77;;;;;;;;;;4346357;33;20027;-76
2022/09/30 07:10:20;;;;;;;42.38;30.65;;;;;;;;;;4346441;33;20026;-76
2022/09/30 07:12:45;;;;;;;;;;;;;;;;;;4347250;33;20023;-75
2022/09/30 07:15:11;;;;;;;50.38;35.67;;;;;;;;;;4346552;33;19970;-76
2022/09/30 07:17:36;;;;;;;;;;;;;;;;;;4347382;33;20031;-75
2022/09/30 07:20:01;;;;;;;45.97;35.92;;;;;;;;;;4346978;33;19950;-75
2022/09/30 07:22:27;;;;;;;47.90;37.22;;;;;;;;;;4346437;33;20057;-76
2022/09/30 07:24:52;;;;;;;;;;;;;;;;;;4346674;33;20046;-75
2022/09/30 07:27:18;;;;;;;51.25;38.28;;;;;;;;;;4360524;33;19950;-75
2022/09/30 07:29:44;;;;;;;50.00;38.00;;;;;;;;;;4346463;32;20484;-76
2022/09/30 07:32:10;;;;;;;45.58;35.80;;;;;;;;;;4360274;33;20035;-75
2022/09/30 07:34:36;;;;;;;43.45;33.53;;;;;;;;;;4346309;33;20035;-76
2022/09/30 07:37:02;;;;;;;;;;;;;;;;;;4346669;33;20062;-75
2022/09/30 07:39:28;;;;;;;41.50;33.63;;;;;;;;;;4360217;33;19953;-74
2022/09/30 07:41:53;;;;;;;38.05;32.80;;;;;;;;;;4346107;33;20055;-76
2022/09/30 07:44:19;;;;;;;34.13;28.10;;;;;;;;;;4346193;33;20047;-75
2022/09/30 07:46:44;;;;;;;35.80;28.42;;;;;;;;;;4345841;33;20074;-75
2022/09/30 07:49:14;;;;;;;33.92;28.60;;;;;;;;;;4347664;33;20028;-75
2022/09/30 07:51:42;;;;;;;31.62;26.70;;;;;;;;;;4346008;33;20444;-75
2022/09/30 07:54:12;;;;;;;43.60;27.80;;;;;;;;;;4346344;33;20069;-75
2022/09/30 07:56:38;;;;;;;29.37;22.80;;;;;;;;;;4346717;33;20066;-76
2022/09/30 07:59:04;;;;;;;25.70;22.35;;;;;;;;;;4359578;33;20031;-76
2022/09/30 08:01:34;;;;;;;;;;;;;;;;;;4346744;33;20102;-76
2022/09/30 08:04:01;;;;;;;41.53;21.35;;;;;;;;;;4346431;33;19945;-76
2022/09/30 08:06:27;;;;;;;26.58;21.10;;;;;;;;;;4345863;33;20027;-76
2022/09/30 08:08:53;;;;;;;31.87;20.73;;;;;;;;;;4345777;32;20035;-75
2022/09/30 08:11:19;;;;;;;28.67;21.12;;;;;;;;;;4348468;33;20409;-74
2022/09/30 08:13:44;;;;;;;;;;;;;;;;;;4349475;33;20049;-75
2022/09/30 08:16:09;;;;;;;25.08;17.27;;;;;;;;;;4348751;33;20333;-75
2022/09/30 08:18:35;;;;;;;;;;;;;;;;;;4363039;32;20043;-73
2022/09/30 08:21:04;;;;;;;20.85;15.80;;;;;;;;;;4348842;33;19974;-72
2022/09/30 08:23:29;;;;;;;15.98;14.20;;;;;;;;;;4348343;33;20484;-75
2022/09/30 08:25:54;;;;;;;;;;;;;;;;;;4362277;32;20085;-76
2022/09/30 08:28:24;;;;;;;16.35;12.30;;;;;;;;;;4362433;32;19938;-76
2022/09/30 08:30:49;;;;;;;12.77;11.00;;;;;;;;;;4362365;32;20038;-75
2022/09/30 08:36:29;;;;;;;12.32;10.52;;;;;;;;;;4345417;33;20371;-75
2022/09/30 08:38:54;;;;;;;12.00;8.57;;;;;;;;;;4333876;33;20043;-75
2022/09/30 08:41:38;;;;;;;14.75;8.93;;;;;;;;;;4342950;33;20066;-75
2022/09/30 08:44:18;;;;;;;9.98;8.93;;;;;;;;;;4348287;33;20034;-75
2022/09/30 08:46:46;;;;;;;18.98;8.77;;;;;;;;;;4348222;33;20090;-75
2022/09/30 08:49:25;;;;;;;8.75;7.85;;;;;;;;;;4348647;33;20146;-75
2022/09/30 08:51:50;;;;;;;9.38;8.35;;;;;;;;;;4362565;32;20031;-75
2022/09/30 08:54:15;;;;;;;;;;;;;;;;;;4348603;33;20039;-73
2022/09/30 08:56:43;;;;;;;8.93;7.70;;;;;;;;;;4361732;32;19969;-75
2022/09/30 08:59:29;;;;;;;12.82;7.15;;;;;;;;;;4362346;32;20210;-75
2022/09/30 09:02:01;;;;;;;8.80;6.68;;;;;;;;;;4361336;32;20036;-74
2022/09/30 09:04:26;;;;;;;7.80;7.00;;;;;;;;;;4362499;32;20035;-74
2022/09/30 09:07:00;;;;;;;8.10;7.03;;;;;;;;;;4361859;32;20035;-76
2022/09/30 09:10:06;;;;;;;8.70;7.15;;;;;;;;;;4347844;33;20413;-77
2022/09/30 09:12:51;;;;;;;9.10;7.00;;;;;;;;;;4360239;33;20451;-76
2022/09/30 09:15:22;;;;;;;11.27;6.85;;;;;;;;;;4347582;33;20068;-75
2022/09/30 09:17:57;;;;;;;8.60;6.28;;;;;;;;;;4348240;33;20034;-75
2022/09/30 09:20:24;;;;;;;6.80;6.10;;;;;;;;;;4362542;32;20101;-76
2022/09/30 09:22:50;;;;;;;6.85;5.50;;;;;;;;;;4347982;33;20381;-75
2022/09/30 09:25:18;;;;;;;10.63;5.87;;;;;;;;;;4348700;33;20077;-75
2022/09/30 09:27:48;;;;;;;10.25;5.95;;;;;;;;;;4348312;33;20028;-75
2022/09/30 09:30:16;;;;;;;5.57;4.72;;;;;;;;;;4348297;33;20024;-74
2022/09/30 09:32:46;;;;;;;10.45;5.32;;;;;;;;;;4347542;33;20063;-75
2022/09/30 09:35:11;;;;;;;6.95;5.32;;;;;;;;;;4346961;33;20118;-75
2022/09/30 09:40:33;;;;;;;8.93;4.78;;;;;;;;;;4361532;32;20054;-75
2022/09/30 09:43:32;;;;;;;5.68;3.97;;;;;;;;;;4360940;32;20028;-76
2022/09/30 09:46:52;;;;;;;4.45;3.58;;;;;;;;;;4320707;33;20077;-75
2022/09/30 09:49:23;;;;;;;6.45;3.60;;;;;;;;;;4355174;33;20074;-75
2022/09/30 09:52:04;;;;;;;5.78;2.72;;;;;;;;;;4362631;32;20081;-75
2022/09/30 09:54:31;;;;;;;5.07;3.47;;;;;;;;;;4347977;33;20039;-75
2022/09/30 09:57:10;;;;;;;4.45;3.33;;;;;;;;;;4360799;32;20073;-75
2022/09/30 09:59:38;;;;;;;6.12;3.40;;;;;;;;;;4361085;33;20036;-76
2022/09/30 10:02:21;;;;;;;7.87;3.30;;;;;;;;;;4361226;32;20057;-75
2022/09/30 10:04:49;;;;;;;4.45;2.75;;;;;;;;;;4360632;32;20480;-75
2022/09/30 10:07:18;;;;;;;4.55;2.45;;;;;;;;;;4360325;32;20061;-76
2022/09/30 10:09:44;;;;;;;4.97;2.67;;;;;;;;;;4346954;33;20054;-75
2022/09/30 10:12:12;;;;;;;3.72;2.70;;;;;;;;;;4346967;33;20039;-75
2022/09/30 10:14:45;;;;;;;7.25;2.72;;;;;;;;;;4361086;32;20031;-75
2022/09/30 10:17:28;;;;;;;5.87;3.10;;;;;;;;;;4361014;32;20088;-75
2022/09/30 10:19:58;;;;;;;7.47;3.08;;;;;;;;;;4346737;33;20031;-74
2022/09/30 10:22:26;;;;;;;4.15;2.30;;;;;;;;;;4339763;33;20488;-75
2022/09/30 10:25:07;;;;;;;5.30;2.22;;;;;;;;;;4359951;32;20082;-76
2022/09/30 10:27:33;;;;;;;3.97;2.15;;;;;;;;;;4345947;33;20422;-77
2022/09/30 10:29:59;;;;;;;18.87;3.60;;;;;;;;;;4359914;32;20035;-76
2022/09/30 10:32:24;;;;;;;3.30;2.05;;;;;;;;;;4345202;33;20031;-75
2022/09/30 10:35:01;;;;;;;2.55;1.60;;;;;;;;;;4358828;33;20047;-75
2022/09/30 10:37:30;;;;;;;3.40;2.10;;;;;;;;;;4359424;32;20058;-77
2022/09/30 10:39:57;;;;;;;4.55;1.80;;;;;;;;;;4345059;33;20092;-76
2022/09/30 10:42:24;;;;;;;3.28;1.52;;;;;;;;;;4359690;32;20074;-75
2022/09/30 10:44:57;;;;;;;2.55;1.77;;;;;;;;;;4345275;33;20306;-78
2022/09/30 10:47:27;;;;;;;2.75;1.73;;;;;;;;;;4347678;33;20098;-75
2022/09/30 10:50:15;;;;;;;2.45;1.80;;;;;;;;;;4347073;33;20053;-83
2022/09/30 10:52:55;;;;;;;4.37;1.80;;;;;;;;;;4360981;32;20189;-80
2022/09/30 10:55:21;;;;;;;3.87;2.10;;;;;;;;;;4347005;33;20065;-75
2022/09/30 10:57:48;;;;;;;4.85;2.22;;;;;;;;;;4360568;32;20035;-76
2022/09/30 11:00:21;;;;;;;7.22;2.45;;;;;;;;;;4347904;33;20061;-72
2022/09/30 11:02:46;;;;;;;3.50;1.52;;;;;;;;;;4346982;33;20077;-72
2022/09/30 11:05:18;;;;;;;2.87;1.70;;;;;;;;;;4362159;32;20397;-73
2022/09/30 11:07:43;;;;;;;3.87;1.77;;;;;;;;;;4361443;32;20026;-73
2022/09/30 11:10:30;;;;;;;3.05;1.60;;;;;;;;;;4347711;33;20078;-74
2022/09/30 11:12:56;;;;;;;;;;;;;;;;;;4348755;33;20390;-73
2022/09/30 11:15:26;;;;;;;4.03;1.77;;;;;;;;;;4360949;33;19993;-73
2022/09/30 11:17:54;;;;;;;4.43;1.77;;;;;;;;;;4344016;33;20190;-73
2022/09/30 11:20:25;;;;;;;3.83;2.03;;;;;;;;;;4359032;33;20043;-75
2022/09/30 11:23:11;;;;;;;5.18;1.80;;;;;;;;;;4358373;32;20024;-73
2022/09/30 11:25:47;;;;;;;4.60;1.75;;;;;;;;;;4322156;33;20043;-73
2022/09/30 11:28:25;;;;;;;4.22;2.12;;;;;;;;;;4358301;33;20071;-75
2022/09/30 11:31:13;;;;;;;4.05;2.22;;;;;;;;;;4345758;33;20066;-73
2022/09/30 11:33:42;;;;;;;6.90;3.72;;;;;;;;;;4358513;33;20054;-74
2022/09/30 11:36:10;;;;;;;5.28;2.70;;;;;;;;;;4357998;33;20117;-75
2022/09/30 11:38:43;;;;;;;7.75;3.58;;;;;;;;;;4358220;33;20384;-73
2022/09/30 11:41:30;;;;;;;5.40;3.30;;;;;;;;;;4358811;33;20132;-74
2022/09/30 11:44:14;;;;;;;7.18;4.15;;;;;;;;;;4358611;32;20059;-73
2022/09/30 11:46:39;;;;;;;10.43;4.37;;;;;;;;;;4361182;33;20356;-75
2022/09/30 11:49:28;;;;;;;5.55;4.05;;;;;;;;;;4363358;32;20050;-74
2022/09/30 11:52:12;;;;;;;8.50;5.12;;;;;;;;;;4348559;33;20127;-75
2022/09/30 11:55:00;;;;;;;9.60;5.78;;;;;;;;;;4349237;33;20357;-74
2022/09/30 11:57:36;;;;;;;9.00;4.95;;;;;;;;;;4349907;33;20043;-74
2022/09/30 12:00:02;;;;;;;;;;;;;;;;;;4350791;32;20063;-74
2022/09/30 12:02:34;;;;;;;8.30;5.37;;;;;;;;;;4362823;32;20322;-73
2022/09/30 12:05:04;;;;;;;12.80;6.28;;;;;;;;;;4350215;33;20404;-73
2022/09/30 12:07:49;;;;;;;9.43;5.60;;;;;;;;;;4363048;32;20031;-73
2022/09/30 12:10:20;;;;;;;10.45;4.45;;;;;;;;;;4349093;33;20035;-73
2022/09/30 12:12:47;;;;;;;8.38;5.47;;;;;;;;;;4348865;33;20433;-74
2022/09/30 12:18:04;;;;;;;7.40;4.43;;;;;;;;;;4356119;33;20095;-73
2022/09/30 12:20:29;;;;;;;13.15;4.10;;;;;;;;;;4363131;32;20058;-74
2022/09/30 12:23:10;;;;;;;4.93;3.80;;;;;;;;;;4362645;32;20083;-73
2022/09/30 12:25:39;;;;;;;6.60;4.10;;;;;;;;;;4349157;33;20035;-73
2022/09/30 12:31:23;;;;;;;7.22;4.28;;;;;;;;;;4362958;32;20111;-73
2022/09/30 12:33:58;;;;;;;6.35;3.90;;;;;;;;;;4353821;33;20035;-73
2022/09/30 12:36:35;;;;;;;7.72;3.62;;;;;;;;;;4362851;32;20093;-74
2022/09/30 12:39:04;;;;;;;3.30;2.90;;;;;;;;;;4347552;33;20113;-73
2022/09/30 12:41:32;;;;;;;5.30;3.17;;;;;;;;;;4361656;32;20446;-72
2022/09/30 12:44:17;;;;;;;9.45;4.18;;;;;;;;;;4348622;33;20053;-72
2022/09/30 12:47:09;;;;;;;7.47;3.12;;;;;;;;;;4346485;33;20057;-73
2022/09/30 12:49:36;;;;;;;5.97;3.40;;;;;;;;;;4362589;32;20054;-73
2022/09/30 12:52:04;;;;;;;6.05;3.40;;;;;;;;;;4361836;33;20468;-73
2022/09/30 12:54:32;;;;;;;7.18;3.95;;;;;;;;;;4361881;32;20031;-73
2022/09/30 12:57:00;;;;;;;6.40;3.87;;;;;;;;;;4345303;33;20047;-73
2022/09/30 12:59:27;;;;;;;5.12;3.78;;;;;;;;;;4344455;33;20442;-73
2022/09/30 13:01:53;;;;;;;8.98;3.78;;;;;;;;;;4349694;33;20110;-73
2022/09/30 13:04:35;;;;;;;5.80;3.80;;;;;;;;;;4361502;32;20031;-72
2022/09/30 13:07:00;;;;;;;11.15;4.50;;;;;;;;;;4347764;33;20379;-73
2022/09/30 13:09:29;;;;;;;4.93;3.10;;;;;;;;;;4348731;32;20035;-72
2022/09/30 13:11:55;;;;;;;6.75;3.42;;;;;;;;;;4348194;33;20135;-72
2022/09/30 13:14:31;;;;;;;6.62;3.08;;;;;;;;;;4361759;32;20069;-72
2022/09/30 13:16:59;;;;;;;8.60;5.10;;;;;;;;;;4361442;32;20035;-72
2022/09/30 13:19:50;;;;;;;8.85;3.72;;;;;;;;;;4361592;32;20452;-73
2022/09/30 13:22:18;;;;;;;12.00;3.67;;;;;;;;;;4361744;32;20031;-72
2022/09/30 13:25:29;;;;;;;5.25;2.70;;;;;;;;;;4361744;32;20122;-72
2022/09/30 13:28:12;;;;;;;4.00;2.00;;;;;;;;;;4325849;33;20043;-73
2022/09/30 13:30:39;;;;;;;4.70;2.80;;;;;;;;;;4347552;33;20085;-72
2022/09/30 13:33:24;;;;;;;5.37;3.10;;;;;;;;;;4360937;33;20081;-71
2022/09/30 13:35:51;;;;;;;5.55;3.37;;;;;;;;;;4347512;33;20035;-72
2022/09/30 13:38:18;;;;;;;4.75;3.35;;;;;;;;;;4361705;32;20039;-73
2022/09/30 13:40:57;;;;;;;12.82;3.72;;;;;;;;;;4347014;33;20085;-71
2022/09/30 13:43:25;;;;;;;4.95;3.25;;;;;;;;;;4360523;32;20043;-73
2022/09/30 13:45:52;;;;;;;4.37;2.92;;;;;;;;;;4360245;32;20051;-72
2022/09/30 13:48:21;;;;;;;4.65;2.67;;;;;;;;;;4348404;33;20035;-72
2022/09/30 13:50:47;;;;;;;6.45;2.85;;;;;;;;;;4347088;33;20028;-73
2022/09/30 13:53:20;;;;;;;4.18;2.67;;;;;;;;;;4347072;33;20391;-72
2022/09/30 13:55:49;;;;;;;7.22;2.95;;;;;;;;;;4360903;32;20114;-72
2022/09/30 13:58:30;;;;;;;5.30;3.35;;;;;;;;;;4360843;32;20069;-73
2022/09/30 14:01:03;;;;;;;9.57;3.78;;;;;;;;;;4361571;32;20354;-72
2022/09/30 14:03:39;;;;;;;8.18;4.62;;;;;;;;;;4347344;33;20073;-73
2022/09/30 14:06:13;;;;;;;8.98;4.60;;;;;;;;;;4361009;32;20414;-72
2022/09/30 14:08:57;;;;;;;4.97;3.65;;;;;;;;;;4347463;33;20018;-73
2022/09/30 14:11:46;;;;;;;6.10;3.60;;;;;;;;;;4360854;32;20058;-72
2022/09/30 14:14:21;;;;;;;5.57;3.85;;;;;;;;;;4347438;33;20530;-73
2022/09/30 14:17:02;;;;;;;8.02;3.78;;;;;;;;;;4360650;32;20426;-74
2022/09/30 14:19:56;;;;;;;5.95;4.07;;;;;;;;;;4349423;32;20039;-74
2022/09/30 14:22:25;;;;;;;8.77;4.57;;;;;;;;;;4332871;33;20413;-74
2022/09/30 14:24:51;;;;;;;6.50;4.35;;;;;;;;;;4332102;33;20095;-72
2022/09/30 14:27:21;;;;;;;10.05;4.93;;;;;;;;;;4346023;33;20362;-72
2022/09/30 14:30:19;;;;;;;5.70;4.40;;;;;;;;;;4332365;33;20031;-73
2022/09/30 14:32:46;;;;;;;6.85;4.82;;;;;;;;;;4324410;33;20470;-72
2022/09/30 14:35:19;;;;;;;8.15;5.40;;;;;;;;;;4357706;33;20105;-73
2022/09/30 14:37:48;;;;;;;6.90;4.68;;;;;;;;;;4347151;33;20027;-72
2022/09/30 14:40:18;;;;;;;8.63;5.25;;;;;;;;;;4347066;33;20034;-72
2022/09/30 14:42:46;;;;;;;7.37;5.25;;;;;;;;;;4346883;33;20438;-72
2022/09/30 14:45:17;;;;;;;7.28;5.50;;;;;;;;;;4360566;32;20255;-71
2022/09/30 14:47:47;;;;;;;7.37;5.45;;;;;;;;;;4347136;33;20067;-71
2022/09/30 14:50:15;;;;;;;8.50;5.10;;;;;;;;;;4360751;32;20023;-72
2022/09/30 14:52:40;;;;;;;9.70;5.97;;;;;;;;;;4350473;33;20031;-71
2022/09/30 14:55:16;;;;;;;10.40;5.78;;;;;;;;;;4346945;33;20074;-72
2022/09/30 14:57:42;;;;;;;;;;;;;;;;;;4361044;32;20063;-73
2022/09/30 15:00:20;;;;;;;9.30;6.40;;;;;;;;;;4360273;32;19973;-71
2022/09/30 15:02:46;;;;;;;9.73;6.20;;;;;;;;;;4346451;33;20023;-73
2022/09/30 15:05:12;;;;;;;11.70;5.20;;;;;;;;;;4346914;33;20081;-73
2022/09/30 15:07:39;;;;;;;7.47;4.75;;;;;;;;;;4359847;32;20031;-73
2022/09/30 15:10:06;;;;;;;8.45;5.80;;;;;;;;;;4346741;33;20447;-72
2022/09/30 15:12:32;;;;;;;9.40;5.68;;;;;;;;;;4361268;32;20069;-72
2022/09/30 15:14:58;;;;;;;11.45;5.50;;;;;;;;;;4360138;32;20464;-71
2022/09/30 15:18:07;;;;;;;5.43;4.50;;;;;;;;;;4360122;33;20035;-71
2022/09/30 15:20:34;;;;;;;8.27;5.40;;;;;;;;;;4360999;32;20043;-74